Orange, CA

11:28 PM PDT on June 01, 2015 (GMT -0700)
Old Town Orange | | Change Station
CLOSE
Current Station
Personal Weather Station
Location: Orange, CA
Elevation: 213 ft
Nearby Weather Stations

Elev 213 ft 33.78 °N, 117.85 °W | Updated 23 seconds ago

Clear
Clear
62.6 °F
Feels Like 62.6 °F
N
0.0
Wind Variable Wind from SW
Gusts 0.0 mph

Today
High -- | Low -- °F
--% Chance of Precip.
Yesterday
High -- | Low -- °F
Precip. -- in
5:41 AM 7:56 PM
Full, 100% visible
Pressure 30.00 in
Visibility 10.0 miles
Clouds Few 1400 ft
Scattered Clouds 25000 ft
Dew Point 56 °F
Humidity 80%
Rainfall 0.00 in
Snow Depth Not available.
UV 0 out of 12
Pollen 4.00 out of 12
Air Quality Not available.
Flu Activity Sporadic
METAR KSNA 020553Z AUTO 00000KT 10SM FEW014 SCT250 17/13 A3001 RMK AO2 SLP159 T01720133 10211 20172 51009 TSNO

More Conditions Fewer Conditions

Pressure 30.00 in
Visibility 10.0 miles
Clouds Few 1400 ft
Scattered Clouds 25000 ft
Dew Point 56 °F
Humidity 80%
Rainfall 0.00 in
Snow Depth Not available.
UV 0 out of 12
Pollen 4.00 out of 12
Air Quality Not available.
Flu Activity Sporadic
METAR KSNA 020553Z AUTO 00000KT 10SM FEW014 SCT250 17/13 A3001 RMK AO2 SLP159 T01720133 10211 20172 51009 TSNO

More Conditions Fewer Conditions

10-Day Weather Forecast

Almanac

Astronomy

Jun. 01, 2015 Rise Set
Actual Time
Civil Twilight
Nautical Twilight
Astronomical Twilight
Moon
Length of Visible Light
Length of Day
Tomorrow will be .
, % of the Moon is Illuminated

Today's Extremes

State Highs State Lows

Community

WunderPhotos

Upload Photos

1,825,923 photos uploaded!

WunderBlogs® & News

Nearby

Air Quality

  Air Quality AQ Index Pollutant
Not available.

Snow Depth

Station Depth Elevation

Earthquake Activity

City Distance Mag. Time & Date
Minimum magnitude displayed is 2.5.

Coastal Water Temperatures

Place Temperature

Stations

Nearby Weather Stations

Station Location Temp. Windchill Dew Point Humidity Wind Precip. Elev Updated Type